sensor_id;sensor_type;location;lat;lon;timestamp;P1;durP1;ratioP1;P2;durP2;ratioP2
46318;SDS011;32042;50.916;2.926;2022-12-29T00:01:35;1.13;;;0.70;;
46318;SDS011;32042;50.916;2.926;2022-12-29T00:04:02;2.67;;;0.60;;
46318;SDS011;32042;50.916;2.926;2022-12-29T00:06:28;1.13;;;0.50;;
46318;SDS011;32042;50.916;2.926;2022-12-29T00:08:54;1.60;;;0.50;;
46318;SDS011;32042;50.916;2.926;2022-12-29T00:11:21;1.97;;;0.60;;
46318;SDS011;32042;50.916;2.926;2022-12-29T00:13:47;2.03;;;0.60;;
46318;SDS011;32042;50.916;2.926;2022-12-29T00:16:33;4.30;;;0.80;;
46318;SDS011;32042;50.916;2.926;2022-12-29T00:18:59;2.50;;;0.50;;
46318;SDS011;32042;50.916;2.926;2022-12-29T00:21:25;3.60;;;1.23;;
46318;SDS011;32042;50.916;2.926;2022-12-29T00:24:18;1.40;;;0.73;;
46318;SDS011;32042;50.916;2.926;2022-12-29T00:26:58;0.77;;;0.37;;
46318;SDS011;32042;50.916;2.926;2022-12-29T00:29:42;1.33;;;0.50;;
46318;SDS011;32042;50.916;2.926;2022-12-29T00:32:27;1.93;;;0.70;;
46318;SDS011;32042;50.916;2.926;2022-12-29T00:35:12;2.83;;;0.60;;
46318;SDS011;32042;50.916;2.926;2022-12-29T00:37:40;3.03;;;0.93;;
46318;SDS011;32042;50.916;2.926;2022-12-29T00:40:25;0.90;;;0.70;;
46318;SDS011;32042;50.916;2.926;2022-12-29T00:43:10;5.40;;;0.97;;
46318;SDS011;32042;50.916;2.926;2022-12-29T00:45:55;2.20;;;0.60;;
46318;SDS011;32042;50.916;2.926;2022-12-29T00:48:21;5.03;;;0.80;;
46318;SDS011;32042;50.916;2.926;2022-12-29T00:51:06;1.53;;;0.63;;
46318;SDS011;32042;50.916;2.926;2022-12-29T00:53:33;1.67;;;0.80;;
46318;SDS011;32042;50.916;2.926;2022-12-29T00:55:59;5.37;;;0.90;;
46318;SDS011;32042;50.916;2.926;2022-12-29T00:58:29;3.37;;;0.70;;
46318;SDS011;32042;50.916;2.926;2022-12-29T01:01:02;6.10;;;0.70;;
46318;SDS011;32042;50.916;2.926;2022-12-29T01:03:28;3.30;;;0.80;;
46318;SDS011;32042;50.916;2.926;2022-12-29T01:05:54;3.13;;;0.57;;
46318;SDS011;32042;50.916;2.926;2022-12-29T01:08:20;3.70;;;0.80;;
46318;SDS011;32042;50.916;2.926;2022-12-29T01:10:46;2.83;;;0.87;;
46318;SDS011;32042;50.916;2.926;2022-12-29T01:13:12;2.90;;;0.80;;
46318;SDS011;32042;50.916;2.926;2022-12-29T01:15:38;6.37;;;1.03;;
46318;SDS011;32042;50.916;2.926;2022-12-29T01:18:04;3.50;;;0.90;;
46318;SDS011;32042;50.916;2.926;2022-12-29T01:20:30;5.20;;;1.00;;
46318;SDS011;32042;50.916;2.926;2022-12-29T01:22:56;4.77;;;0.87;;
46318;SDS011;32042;50.916;2.926;2022-12-29T01:25:22;4.60;;;0.80;;
46318;SDS011;32042;50.916;2.926;2022-12-29T01:27:48;4.20;;;1.00;;
46318;SDS011;32042;50.916;2.926;2022-12-29T01:30:14;4.57;;;1.10;;
46318;SDS011;32042;50.916;2.926;2022-12-29T01:32:40;3.80;;;0.93;;
46318;SDS011;32042;50.916;2.926;2022-12-29T01:35:06;4.00;;;0.97;;
46318;SDS011;32042;50.916;2.926;2022-12-29T01:37:32;5.53;;;1.10;;
46318;SDS011;32042;50.916;2.926;2022-12-29T01:39:58;5.20;;;1.00;;
46318;SDS011;32042;50.916;2.926;2022-12-29T01:42:24;4.37;;;0.97;;
46318;SDS011;32042;50.916;2.926;2022-12-29T01:44:57;3.10;;;0.80;;
46318;SDS011;32042;50.916;2.926;2022-12-29T01:47:31;2.53;;;0.67;;
46318;SDS011;32042;50.916;2.926;2022-12-29T01:49:59;2.77;;;0.70;;
46318;SDS011;32042;50.916;2.926;2022-12-29T01:52:27;3.87;;;0.90;;
46318;SDS011;32042;50.916;2.926;2022-12-29T01:54:53;4.40;;;0.73;;
46318;SDS011;32042;50.916;2.926;2022-12-29T01:57:23;3.27;;;0.90;;
46318;SDS011;32042;50.916;2.926;2022-12-29T01:59:56;3.67;;;1.00;;
46318;SDS011;32042;50.916;2.926;2022-12-29T02:02:23;6.53;;;1.40;;
46318;SDS011;32042;50.916;2.926;2022-12-29T02:04:49;3.50;;;0.77;;
46318;SDS011;32042;50.916;2.926;2022-12-29T02:07:20;2.00;;;0.77;;
46318;SDS011;32042;50.916;2.926;2022-12-29T02:09:50;5.93;;;1.40;;
46318;SDS011;32042;50.916;2.926;2022-12-29T02:12:17;2.67;;;1.10;;
46318;SDS011;32042;50.916;2.926;2022-12-29T02:14:44;5.83;;;1.00;;
46318;SDS011;32042;50.916;2.926;2022-12-29T02:27:43;3.50;;;0.70;;
46318;SDS011;32042;50.916;2.926;2022-12-29T02:35:25;3.03;;;0.50;;
46318;SDS011;32042;50.916;2.926;2022-12-29T02:38:02;3.23;;;0.97;;
46318;SDS011;32042;50.916;2.926;2022-12-29T02:45:36;6.60;;;1.37;;
46318;SDS011;32042;50.916;2.926;2022-12-29T02:48:04;5.13;;;1.73;;
46318;SDS011;32042;50.916;2.926;2022-12-29T02:50:36;5.33;;;1.27;;
46318;SDS011;32042;50.916;2.926;2022-12-29T02:53:08;3.37;;;1.13;;
46318;SDS011;32042;50.916;2.926;2022-12-29T02:55:35;9.97;;;1.70;;
46318;SDS011;32042;50.916;2.926;2022-12-29T02:58:20;12.27;;;1.90;;
46318;SDS011;32042;50.916;2.926;2022-12-29T03:01:01;7.87;;;1.70;;
46318;SDS011;32042;50.916;2.926;2022-12-29T03:13:23;8.17;;;1.50;;
46318;SDS011;32042;50.916;2.926;2022-12-29T03:21:34;14.10;;;1.97;;
46318;SDS011;32042;50.916;2.926;2022-12-29T03:24:20;13.33;;;2.50;;
46318;SDS011;32042;50.916;2.926;2022-12-29T03:26:48;14.97;;;1.97;;
46318;SDS011;32042;50.916;2.926;2022-12-29T03:29:15;9.93;;;2.00;;
46318;SDS011;32042;50.916;2.926;2022-12-29T03:31:43;9.63;;;2.13;;
46318;SDS011;32042;50.916;2.926;2022-12-29T03:34:10;7.10;;;2.00;;
46318;SDS011;32042;50.916;2.926;2022-12-29T03:36:47;9.13;;;1.90;;
46318;SDS011;32042;50.916;2.926;2022-12-29T03:39:13;3.63;;;1.10;;
46318;SDS011;32042;50.916;2.926;2022-12-29T03:41:40;10.97;;;1.93;;
46318;SDS011;32042;50.916;2.926;2022-12-29T03:44:08;13.20;;;1.70;;
46318;SDS011;32042;50.916;2.926;2022-12-29T03:46:34;12.07;;;1.93;;
46318;SDS011;32042;50.916;2.926;2022-12-29T03:49:00;6.67;;;1.37;;
46318;SDS011;32042;50.916;2.926;2022-12-29T03:51:26;8.27;;;1.87;;
46318;SDS011;32042;50.916;2.926;2022-12-29T03:53:52;7.70;;;1.27;;
46318;SDS011;32042;50.916;2.926;2022-12-29T03:56:18;5.03;;;1.27;;
46318;SDS011;32042;50.916;2.926;2022-12-29T03:58:44;8.33;;;2.03;;
46318;SDS011;32042;50.916;2.926;2022-12-29T04:01:10;7.73;;;1.30;;
46318;SDS011;32042;50.916;2.926;2022-12-29T04:03:36;8.73;;;1.67;;
46318;SDS011;32042;50.916;2.926;2022-12-29T04:06:03;9.93;;;1.37;;
46318;SDS011;32042;50.916;2.926;2022-12-29T04:08:29;10.27;;;1.67;;
46318;SDS011;32042;50.916;2.926;2022-12-29T04:10:56;7.90;;;1.27;;
46318;SDS011;32042;50.916;2.926;2022-12-29T04:13:22;6.57;;;1.70;;
46318;SDS011;32042;50.916;2.926;2022-12-29T04:15:48;4.70;;;1.50;;
46318;SDS011;32042;50.916;2.926;2022-12-29T04:18:14;8.87;;;1.80;;
46318;SDS011;32042;50.916;2.926;2022-12-29T04:20:41;9.13;;;1.73;;
46318;SDS011;32042;50.916;2.926;2022-12-29T04:23:25;7.07;;;1.63;;
46318;SDS011;32042;50.916;2.926;2022-12-29T04:25:51;6.53;;;1.60;;
46318;SDS011;32042;50.916;2.926;2022-12-29T04:28:17;7.53;;;1.57;;
46318;SDS011;32042;50.916;2.926;2022-12-29T04:30:44;6.43;;;1.60;;
46318;SDS011;32042;50.916;2.926;2022-12-29T04:33:10;10.43;;;2.33;;
46318;SDS011;32042;50.916;2.926;2022-12-29T04:35:36;9.93;;;2.00;;
46318;SDS011;32042;50.916;2.926;2022-12-29T04:38:02;10.20;;;1.80;;
46318;SDS011;32042;50.916;2.926;2022-12-29T04:40:28;7.97;;;2.17;;
46318;SDS011;32042;50.916;2.926;2022-12-29T04:42:54;7.10;;;1.40;;
46318;SDS011;32042;50.916;2.926;2022-12-29T04:45:20;9.00;;;1.53;;
46318;SDS011;32042;50.916;2.926;2022-12-29T04:47:46;7.40;;;1.83;;
46318;SDS011;32042;50.916;2.926;2022-12-29T04:50:12;8.20;;;1.70;;
46318;SDS011;32042;50.916;2.926;2022-12-29T04:52:38;7.33;;;1.47;;
46318;SDS011;32042;50.916;2.926;2022-12-29T04:55:04;7.50;;;1.60;;
46318;SDS011;32042;50.916;2.926;2022-12-29T04:57:30;14.27;;;1.80;;
46318;SDS011;32042;50.916;2.926;2022-12-29T04:59:56;7.40;;;1.70;;
46318;SDS011;32042;50.916;2.926;2022-12-29T05:02:22;8.67;;;1.70;;
46318;SDS011;32042;50.916;2.926;2022-12-29T05:04:49;5.53;;;1.50;;
46318;SDS011;32042;50.916;2.926;2022-12-29T05:07:15;11.37;;;1.50;;
46318;SDS011;32042;50.916;2.926;2022-12-29T05:09:41;7.83;;;1.57;;
46318;SDS011;32042;50.916;2.926;2022-12-29T05:12:07;6.23;;;1.53;;
46318;SDS011;32042;50.916;2.926;2022-12-29T05:14:33;11.07;;;2.10;;
46318;SDS011;32042;50.916;2.926;2022-12-29T05:16:59;6.97;;;1.80;;
46318;SDS011;32042;50.916;2.926;2022-12-29T05:19:25;6.60;;;1.70;;
46318;SDS011;32042;50.916;2.926;2022-12-29T05:21:51;12.03;;;2.03;;
46318;SDS011;32042;50.916;2.926;2022-12-29T05:24:17;9.13;;;2.00;;
46318;SDS011;32042;50.916;2.926;2022-12-29T05:26:43;2.90;;;1.03;;
46318;SDS011;32042;50.916;2.926;2022-12-29T05:29:09;11.23;;;2.13;;
46318;SDS011;32042;50.916;2.926;2022-12-29T05:31:35;11.93;;;2.00;;
46318;SDS011;32042;50.916;2.926;2022-12-29T05:34:01;12.17;;;2.23;;
46318;SDS011;32042;50.916;2.926;2022-12-29T05:36:27;10.13;;;2.67;;
46318;SDS011;32042;50.916;2.926;2022-12-29T05:38:53;6.43;;;1.70;;
46318;SDS011;32042;50.916;2.926;2022-12-29T05:41:19;10.93;;;2.17;;
46318;SDS011;32042;50.916;2.926;2022-12-29T05:43:45;10.93;;;2.43;;
46318;SDS011;32042;50.916;2.926;2022-12-29T05:46:11;14.93;;;2.40;;
46318;SDS011;32042;50.916;2.926;2022-12-29T05:48:37;5.50;;;1.87;;
46318;SDS011;32042;50.916;2.926;2022-12-29T05:51:04;10.40;;;2.57;;
46318;SDS011;32042;50.916;2.926;2022-12-29T05:53:30;10.93;;;1.87;;
46318;SDS011;32042;50.916;2.926;2022-12-29T05:55:56;12.87;;;2.07;;
46318;SDS011;32042;50.916;2.926;2022-12-29T05:58:22;14.93;;;2.40;;
46318;SDS011;32042;50.916;2.926;2022-12-29T06:00:48;7.97;;;2.00;;
46318;SDS011;32042;50.916;2.926;2022-12-29T06:03:14;8.60;;;2.07;;
46318;SDS011;32042;50.916;2.926;2022-12-29T06:05:40;11.03;;;2.53;;
46318;SDS011;32042;50.916;2.926;2022-12-29T06:08:06;13.33;;;1.90;;
46318;SDS011;32042;50.916;2.926;2022-12-29T06:10:32;8.37;;;2.43;;
46318;SDS011;32042;50.916;2.926;2022-12-29T06:12:58;13.97;;;2.70;;
46318;SDS011;32042;50.916;2.926;2022-12-29T06:15:24;11.07;;;2.20;;
46318;SDS011;32042;50.916;2.926;2022-12-29T06:17:50;9.07;;;2.70;;
46318;SDS011;32042;50.916;2.926;2022-12-29T06:20:16;10.33;;;2.93;;
46318;SDS011;32042;50.916;2.926;2022-12-29T06:22:42;17.83;;;3.33;;
46318;SDS011;32042;50.916;2.926;2022-12-29T06:25:08;14.03;;;3.80;;
46318;SDS011;32042;50.916;2.926;2022-12-29T06:27:34;11.40;;;2.53;;
46318;SDS011;32042;50.916;2.926;2022-12-29T06:30:00;13.60;;;2.50;;
46318;SDS011;32042;50.916;2.926;2022-12-29T06:32:26;13.43;;;2.60;;
46318;SDS011;32042;50.916;2.926;2022-12-29T06:34:52;12.97;;;2.77;;
46318;SDS011;32042;50.916;2.926;2022-12-29T06:37:18;16.20;;;2.87;;
46318;SDS011;32042;50.916;2.926;2022-12-29T06:39:44;19.20;;;3.07;;
46318;SDS011;32042;50.916;2.926;2022-12-29T06:42:10;8.90;;;2.70;;
46318;SDS011;32042;50.916;2.926;2022-12-29T06:44:36;11.17;;;2.30;;
46318;SDS011;32042;50.916;2.926;2022-12-29T06:47:02;15.03;;;2.70;;
46318;SDS011;32042;50.916;2.926;2022-12-29T06:49:28;10.03;;;2.70;;
46318;SDS011;32042;50.916;2.926;2022-12-29T06:51:54;12.20;;;2.13;;
46318;SDS011;32042;50.916;2.926;2022-12-29T06:54:20;15.00;;;2.60;;
46318;SDS011;32042;50.916;2.926;2022-12-29T06:56:46;14.20;;;2.00;;
46318;SDS011;32042;50.916;2.926;2022-12-29T06:59:12;14.00;;;2.53;;
46318;SDS011;32042;50.916;2.926;2022-12-29T07:01:38;12.80;;;2.63;;
46318;SDS011;32042;50.916;2.926;2022-12-29T07:04:04;17.03;;;2.53;;
46318;SDS011;32042;50.916;2.926;2022-12-29T07:06:30;12.80;;;2.73;;
46318;SDS011;32042;50.916;2.926;2022-12-29T07:08:56;10.17;;;2.67;;
46318;SDS011;32042;50.916;2.926;2022-12-29T07:11:23;13.33;;;2.67;;
46318;SDS011;32042;50.916;2.926;2022-12-29T07:13:49;10.20;;;2.67;;
46318;SDS011;32042;50.916;2.926;2022-12-29T07:16:15;7.90;;;2.20;;
46318;SDS011;32042;50.916;2.926;2022-12-29T07:18:41;10.30;;;2.47;;
46318;SDS011;32042;50.916;2.926;2022-12-29T07:21:07;16.13;;;2.43;;
46318;SDS011;32042;50.916;2.926;2022-12-29T07:23:33;13.73;;;2.80;;
46318;SDS011;32042;50.916;2.926;2022-12-29T07:26:00;12.03;;;2.33;;
46318;SDS011;32042;50.916;2.926;2022-12-29T07:28:27;11.73;;;2.40;;
46318;SDS011;32042;50.916;2.926;2022-12-29T07:30:53;16.37;;;3.10;;
46318;SDS011;32042;50.916;2.926;2022-12-29T07:33:19;6.57;;;1.57;;
46318;SDS011;32042;50.916;2.926;2022-12-29T07:35:45;11.40;;;2.60;;
46318;SDS011;32042;50.916;2.926;2022-12-29T07:38:11;11.50;;;2.90;;
46318;SDS011;32042;50.916;2.926;2022-12-29T07:40:37;11.00;;;2.63;;
46318;SDS011;32042;50.916;2.926;2022-12-29T07:43:03;15.47;;;2.93;;
46318;SDS011;32042;50.916;2.926;2022-12-29T07:45:29;12.60;;;2.73;;
46318;SDS011;32042;50.916;2.926;2022-12-29T07:47:55;12.77;;;1.97;;
46318;SDS011;32042;50.916;2.926;2022-12-29T07:50:21;12.40;;;2.77;;
46318;SDS011;32042;50.916;2.926;2022-12-29T07:52:47;15.37;;;2.60;;
46318;SDS011;32042;50.916;2.926;2022-12-29T07:55:14;14.67;;;3.60;;
46318;SDS011;32042;50.916;2.926;2022-12-29T07:57:40;10.07;;;2.60;;
46318;SDS011;32042;50.916;2.926;2022-12-29T08:00:07;16.30;;;3.00;;
46318;SDS011;32042;50.916;2.926;2022-12-29T08:02:34;14.57;;;2.80;;
46318;SDS011;32042;50.916;2.926;2022-12-29T08:05:00;14.13;;;2.90;;
46318;SDS011;32042;50.916;2.926;2022-12-29T08:07:26;14.40;;;2.63;;
46318;SDS011;32042;50.916;2.926;2022-12-29T08:09:52;8.43;;;2.00;;
46318;SDS011;32042;50.916;2.926;2022-12-29T08:12:18;14.47;;;3.53;;
46318;SDS011;32042;50.916;2.926;2022-12-29T08:14:46;10.40;;;2.20;;
46318;SDS011;32042;50.916;2.926;2022-12-29T08:17:12;12.13;;;2.73;;
46318;SDS011;32042;50.916;2.926;2022-12-29T08:19:38;18.50;;;2.63;;
46318;SDS011;32042;50.916;2.926;2022-12-29T08:22:04;15.33;;;2.73;;
46318;SDS011;32042;50.916;2.926;2022-12-29T08:24:31;13.13;;;2.70;;
46318;SDS011;32042;50.916;2.926;2022-12-29T08:26:57;14.93;;;2.80;;
46318;SDS011;32042;50.916;2.926;2022-12-29T08:29:23;16.47;;;3.10;;
46318;SDS011;32042;50.916;2.926;2022-12-29T08:31:49;8.83;;;2.43;;
46318;SDS011;32042;50.916;2.926;2022-12-29T08:34:15;16.53;;;2.70;;
46318;SDS011;32042;50.916;2.926;2022-12-29T08:36:41;21.43;;;4.03;;
46318;SDS011;32042;50.916;2.926;2022-12-29T08:39:07;11.43;;;2.60;;
46318;SDS011;32042;50.916;2.926;2022-12-29T08:41:33;17.00;;;2.77;;
46318;SDS011;32042;50.916;2.926;2022-12-29T08:43:59;12.73;;;2.10;;
46318;SDS011;32042;50.916;2.926;2022-12-29T08:46:25;14.30;;;2.87;;
46318;SDS011;32042;50.916;2.926;2022-12-29T08:48:51;18.70;;;3.07;;
46318;SDS011;32042;50.916;2.926;2022-12-29T08:51:17;14.83;;;2.63;;
46318;SDS011;32042;50.916;2.926;2022-12-29T08:53:43;11.50;;;2.73;;
46318;SDS011;32042;50.916;2.926;2022-12-29T08:56:09;16.40;;;3.00;;
46318;SDS011;32042;50.916;2.926;2022-12-29T08:58:36;16.23;;;3.13;;
46318;SDS011;32042;50.916;2.926;2022-12-29T09:01:03;13.03;;;3.20;;
46318;SDS011;32042;50.916;2.926;2022-12-29T09:03:29;16.70;;;3.00;;
46318;SDS011;32042;50.916;2.926;2022-12-29T09:05:55;13.40;;;3.00;;
46318;SDS011;32042;50.916;2.926;2022-12-29T09:08:21;15.43;;;3.00;;
46318;SDS011;32042;50.916;2.926;2022-12-29T09:10:48;18.17;;;3.10;;
46318;SDS011;32042;50.916;2.926;2022-12-29T09:13:14;12.07;;;2.43;;
46318;SDS011;32042;50.916;2.926;2022-12-29T09:15:40;18.67;;;3.53;;
46318;SDS011;32042;50.916;2.926;2022-12-29T09:18:07;15.37;;;2.27;;
46318;SDS011;32042;50.916;2.926;2022-12-29T09:20:33;15.77;;;3.33;;
46318;SDS011;32042;50.916;2.926;2022-12-29T09:23:00;22.67;;;4.10;;
46318;SDS011;32042;50.916;2.926;2022-12-29T09:25:26;12.83;;;2.97;;
46318;SDS011;32042;50.916;2.926;2022-12-29T09:27:52;11.13;;;2.70;;
46318;SDS011;32042;50.916;2.926;2022-12-29T09:30:19;13.03;;;2.93;;
46318;SDS011;32042;50.916;2.926;2022-12-29T09:32:45;14.73;;;2.77;;
46318;SDS011;32042;50.916;2.926;2022-12-29T09:35:12;12.90;;;2.53;;
46318;SDS011;32042;50.916;2.926;2022-12-29T09:37:38;14.10;;;2.67;;
46318;SDS011;32042;50.916;2.926;2022-12-29T09:40:04;14.03;;;3.10;;
46318;SDS011;32042;50.916;2.926;2022-12-29T09:47:26;19.83;;;2.63;;
46318;SDS011;32042;50.916;2.926;2022-12-29T09:52:58;11.80;;;3.43;;
46318;SDS011;32042;50.916;2.926;2022-12-29T09:55:31;15.17;;;2.97;;
46318;SDS011;32042;50.916;2.926;2022-12-29T09:58:00;19.80;;;3.80;;
46318;SDS011;32042;50.916;2.926;2022-12-29T10:00:38;16.07;;;2.73;;
46318;SDS011;32042;50.916;2.926;2022-12-29T10:03:09;13.43;;;3.10;;
46318;SDS011;32042;50.916;2.926;2022-12-29T10:10:43;11.83;;;2.43;;
46318;SDS011;32042;50.916;2.926;2022-12-29T10:18:38;10.20;;;2.17;;
46318;SDS011;32042;50.916;2.926;2022-12-29T10:21:59;9.00;;;2.00;;
46318;SDS011;32042;50.916;2.926;2022-12-29T10:23:54;7.73;;;1.70;;
46318;SDS011;32042;50.916;2.926;2022-12-29T10:26:22;5.77;;;1.63;;
46318;SDS011;32042;50.916;2.926;2022-12-29T10:31:21;6.93;;;1.53;;
46318;SDS011;32042;50.916;2.926;2022-12-29T10:33:56;11.70;;;1.93;;
46318;SDS011;32042;50.916;2.926;2022-12-29T10:36:44;5.70;;;1.60;;
46318;SDS011;32042;50.916;2.926;2022-12-29T10:41:55;13.03;;;2.23;;
46318;SDS011;32042;50.916;2.926;2022-12-29T10:44:23;10.20;;;1.73;;
46318;SDS011;32042;50.916;2.926;2022-12-29T10:46:54;12.23;;;2.57;;
46318;SDS011;32042;50.916;2.926;2022-12-29T10:49:21;10.00;;;2.80;;
46318;SDS011;32042;50.916;2.926;2022-12-29T10:51:47;12.43;;;2.37;;
46318;SDS011;32042;50.916;2.926;2022-12-29T10:56:43;11.87;;;2.43;;
46318;SDS011;32042;50.916;2.926;2022-12-29T10:59:24;13.23;;;2.50;;
46318;SDS011;32042;50.916;2.926;2022-12-29T11:02:05;14.23;;;2.83;;
46318;SDS011;32042;50.916;2.926;2022-12-29T11:07:06;15.23;;;2.40;;
46318;SDS011;32042;50.916;2.926;2022-12-29T11:09:33;15.13;;;3.03;;
46318;SDS011;32042;50.916;2.926;2022-12-29T11:12:00;11.57;;;2.87;;
46318;SDS011;32042;50.916;2.926;2022-12-29T11:14:27;10.47;;;2.47;;
46318;SDS011;32042;50.916;2.926;2022-12-29T11:16:58;11.00;;;1.93;;
46318;SDS011;32042;50.916;2.926;2022-12-29T11:19:25;10.80;;;2.23;;
46318;SDS011;32042;50.916;2.926;2022-12-29T11:21:52;9.57;;;1.93;;
46318;SDS011;32042;50.916;2.926;2022-12-29T11:26:45;15.03;;;2.93;;
46318;SDS011;32042;50.916;2.926;2022-12-29T11:29:16;10.63;;;2.50;;
46318;SDS011;32042;50.916;2.926;2022-12-29T11:31:44;14.03;;;3.07;;
46318;SDS011;32042;50.916;2.926;2022-12-29T11:34:17;14.93;;;2.73;;
46318;SDS011;32042;50.916;2.926;2022-12-29T11:36:43;9.63;;;2.43;;
46318;SDS011;32042;50.916;2.926;2022-12-29T11:39:22;14.77;;;2.43;;
46318;SDS011;32042;50.916;2.926;2022-12-29T11:41:53;7.30;;;2.07;;
46318;SDS011;32042;50.916;2.926;2022-12-29T11:44:19;9.33;;;1.80;;
46318;SDS011;32042;50.916;2.926;2022-12-29T11:46:46;6.40;;;1.50;;
46318;SDS011;32042;50.916;2.926;2022-12-29T11:49:13;5.50;;;1.47;;
46318;SDS011;32042;50.916;2.926;2022-12-29T11:51:45;9.23;;;1.83;;
46318;SDS011;32042;50.916;2.926;2022-12-29T11:54:14;8.80;;;2.23;;
46318;SDS011;32042;50.916;2.926;2022-12-29T11:56:43;10.77;;;2.33;;
46318;SDS011;32042;50.916;2.926;2022-12-29T12:01:57;6.47;;;2.10;;
46318;SDS011;32042;50.916;2.926;2022-12-29T12:04:28;7.63;;;2.13;;
46318;SDS011;32042;50.916;2.926;2022-12-29T12:07:00;6.97;;;1.70;;
46318;SDS011;32042;50.916;2.926;2022-12-29T12:09:32;11.17;;;1.50;;
46318;SDS011;32042;50.916;2.926;2022-12-29T12:12:00;11.30;;;1.43;;
46318;SDS011;32042;50.916;2.926;2022-12-29T12:14:29;7.20;;;1.77;;
46318;SDS011;32042;50.916;2.926;2022-12-29T12:16:59;7.30;;;1.73;;
46318;SDS011;32042;50.916;2.926;2022-12-29T12:32:34;4.93;;;1.07;;
46318;SDS011;32042;50.916;2.926;2022-12-29T12:35:15;5.10;;;1.30;;
46318;SDS011;32042;50.916;2.926;2022-12-29T12:43:21;3.53;;;0.90;;
46318;SDS011;32042;50.916;2.926;2022-12-29T12:50:51;4.77;;;0.80;;
46318;SDS011;32042;50.916;2.926;2022-12-29T13:01:03;4.10;;;0.60;;
46318;SDS011;32042;50.916;2.926;2022-12-29T13:12:25;3.40;;;0.90;;
46318;SDS011;32042;50.916;2.926;2022-12-29T13:30:21;5.93;;;0.90;;
46318;SDS011;32042;50.916;2.926;2022-12-29T13:37:49;4.37;;;1.40;;
46318;SDS011;32042;50.916;2.926;2022-12-29T13:40:17;3.73;;;0.83;;
46318;SDS011;32042;50.916;2.926;2022-12-29T13:42:44;3.13;;;0.90;;
46318;SDS011;32042;50.916;2.926;2022-12-29T13:45:13;4.97;;;0.83;;
46318;SDS011;32042;50.916;2.926;2022-12-29T13:47:40;3.73;;;0.90;;
46318;SDS011;32042;50.916;2.926;2022-12-29T13:50:15;6.30;;;1.10;;
46318;SDS011;32042;50.916;2.926;2022-12-29T14:01:08;11.23;;;1.87;;
46318;SDS011;32042;50.916;2.926;2022-12-29T14:03:58;9.93;;;1.53;;
46318;SDS011;32042;50.916;2.926;2022-12-29T14:06:25;6.20;;;1.70;;
46318;SDS011;32042;50.916;2.926;2022-12-29T14:08:52;4.23;;;1.10;;
46318;SDS011;32042;50.916;2.926;2022-12-29T14:11:20;8.03;;;1.83;;
46318;SDS011;32042;50.916;2.926;2022-12-29T14:13:47;7.43;;;2.10;;
46318;SDS011;32042;50.916;2.926;2022-12-29T14:16:27;8.40;;;1.50;;
46318;SDS011;32042;50.916;2.926;2022-12-29T14:18:54;6.70;;;1.50;;
46318;SDS011;32042;50.916;2.926;2022-12-29T14:21:22;11.23;;;1.80;;
46318;SDS011;32042;50.916;2.926;2022-12-29T14:23:53;7.33;;;2.47;;
46318;SDS011;32042;50.916;2.926;2022-12-29T14:31:43;5.93;;;1.93;;
46318;SDS011;32042;50.916;2.926;2022-12-29T14:41:59;9.60;;;1.77;;
46318;SDS011;32042;50.916;2.926;2022-12-29T14:44:25;8.53;;;1.93;;
46318;SDS011;32042;50.916;2.926;2022-12-29T14:46:55;5.83;;;1.57;;
46318;SDS011;32042;50.916;2.926;2022-12-29T14:49:29;8.23;;;1.40;;
46318;SDS011;32042;50.916;2.926;2022-12-29T14:54:43;6.07;;;1.23;;
46318;SDS011;32042;50.916;2.926;2022-12-29T14:59:58;5.97;;;1.37;;
46318;SDS011;32042;50.916;2.926;2022-12-29T15:02:26;7.03;;;1.90;;
46318;SDS011;32042;50.916;2.926;2022-12-29T15:04:58;7.33;;;1.40;;
46318;SDS011;32042;50.916;2.926;2022-12-29T15:07:25;7.53;;;1.67;;
46318;SDS011;32042;50.916;2.926;2022-12-29T15:09:57;5.73;;;1.30;;
46318;SDS011;32042;50.916;2.926;2022-12-29T15:14:59;7.30;;;1.60;;
46318;SDS011;32042;50.916;2.926;2022-12-29T15:17:31;8.67;;;1.80;;
46318;SDS011;32042;50.916;2.926;2022-12-29T15:19:58;9.03;;;1.40;;
46318;SDS011;32042;50.916;2.926;2022-12-29T15:22:25;10.03;;;1.93;;
46318;SDS011;32042;50.916;2.926;2022-12-29T15:24:52;7.67;;;1.07;;
46318;SDS011;32042;50.916;2.926;2022-12-29T15:27:23;7.47;;;1.60;;
46318;SDS011;32042;50.916;2.926;2022-12-29T15:29:59;14.03;;;2.10;;
46318;SDS011;32042;50.916;2.926;2022-12-29T15:32:27;8.27;;;2.03;;
46318;SDS011;32042;50.916;2.926;2022-12-29T15:34:54;7.97;;;2.43;;
46318;SDS011;32042;50.916;2.926;2022-12-29T15:37:25;14.60;;;1.87;;
46318;SDS011;32042;50.916;2.926;2022-12-29T15:39:51;7.43;;;2.10;;
46318;SDS011;32042;50.916;2.926;2022-12-29T15:42:21;11.90;;;2.80;;
46318;SDS011;32042;50.916;2.926;2022-12-29T15:44:49;10.63;;;2.27;;
46318;SDS011;32042;50.916;2.926;2022-12-29T15:47:22;10.03;;;2.07;;
46318;SDS011;32042;50.916;2.926;2022-12-29T15:49:50;12.53;;;2.70;;
46318;SDS011;32042;50.916;2.926;2022-12-29T15:52:19;14.27;;;2.83;;
46318;SDS011;32042;50.916;2.926;2022-12-29T15:54:45;16.80;;;2.50;;
46318;SDS011;32042;50.916;2.926;2022-12-29T15:57:21;14.77;;;2.33;;
46318;SDS011;32042;50.916;2.926;2022-12-29T15:59:48;16.30;;;3.20;;
46318;SDS011;32042;50.916;2.926;2022-12-29T16:02:14;10.07;;;1.77;;
46318;SDS011;32042;50.916;2.926;2022-12-29T16:04:40;9.47;;;2.30;;
46318;SDS011;32042;50.916;2.926;2022-12-29T16:07:21;17.33;;;2.33;;
46318;SDS011;32042;50.916;2.926;2022-12-29T16:09:53;16.30;;;2.50;;
46318;SDS011;32042;50.916;2.926;2022-12-29T16:12:23;14.97;;;2.93;;
46318;SDS011;32042;50.916;2.926;2022-12-29T16:14:51;10.53;;;2.07;;
46318;SDS011;32042;50.916;2.926;2022-12-29T16:17:20;17.47;;;2.43;;
46318;SDS011;32042;50.916;2.926;2022-12-29T16:19:54;12.33;;;2.70;;
46318;SDS011;32042;50.916;2.926;2022-12-29T16:24:54;15.47;;;2.77;;
46318;SDS011;32042;50.916;2.926;2022-12-29T16:27:21;15.37;;;2.30;;
46318;SDS011;32042;50.916;2.926;2022-12-29T16:29:52;7.33;;;2.93;;
46318;SDS011;32042;50.916;2.926;2022-12-29T16:34:48;12.83;;;2.60;;
46318;SDS011;32042;50.916;2.926;2022-12-29T16:37:28;14.97;;;2.50;;
46318;SDS011;32042;50.916;2.926;2022-12-29T16:39:54;16.33;;;2.80;;
46318;SDS011;32042;50.916;2.926;2022-12-29T16:42:33;12.37;;;2.40;;
46318;SDS011;32042;50.916;2.926;2022-12-29T16:50:18;18.50;;;3.93;;
46318;SDS011;32042;50.916;2.926;2022-12-29T16:52:48;12.50;;;2.87;;
46318;SDS011;32042;50.916;2.926;2022-12-29T16:55:17;18.90;;;2.83;;
46318;SDS011;32042;50.916;2.926;2022-12-29T16:57:44;16.63;;;2.70;;
46318;SDS011;32042;50.916;2.926;2022-12-29T17:00:18;13.67;;;3.43;;
46318;SDS011;32042;50.916;2.926;2022-12-29T17:02:45;15.20;;;3.20;;
46318;SDS011;32042;50.916;2.926;2022-12-29T17:05:12;14.87;;;3.13;;
46318;SDS011;32042;50.916;2.926;2022-12-29T17:07:38;16.93;;;2.93;;
46318;SDS011;32042;50.916;2.926;2022-12-29T17:10:05;8.10;;;2.53;;
46318;SDS011;32042;50.916;2.926;2022-12-29T17:12:31;14.43;;;2.50;;
46318;SDS011;32042;50.916;2.926;2022-12-29T17:15:05;14.13;;;2.80;;
46318;SDS011;32042;50.916;2.926;2022-12-29T17:17:35;23.53;;;3.53;;
46318;SDS011;32042;50.916;2.926;2022-12-29T17:20:14;14.90;;;3.63;;
46318;SDS011;32042;50.916;2.926;2022-12-29T17:22:40;16.33;;;2.90;;
46318;SDS011;32042;50.916;2.926;2022-12-29T17:25:10;12.63;;;2.53;;
46318;SDS011;32042;50.916;2.926;2022-12-29T17:27:37;14.07;;;3.07;;
46318;SDS011;32042;50.916;2.926;2022-12-29T17:30:05;14.70;;;2.80;;
46318;SDS011;32042;50.916;2.926;2022-12-29T17:32:35;17.00;;;3.13;;
46318;SDS011;32042;50.916;2.926;2022-12-29T17:35:01;14.97;;;3.03;;
46318;SDS011;32042;50.916;2.926;2022-12-29T17:39:54;8.53;;;2.43;;
46318;SDS011;32042;50.916;2.926;2022-12-29T17:42:20;12.23;;;2.20;;